Time;durP1;ratioP1;P1;durP2;ratioP2;P2;SDS_P1;SDS_P2;PMS_P1;PMS_P2;Temp;Humidity;BMP_temperature;BMP_pressure;BME280_temperature;BME280_humidity;BME280_pressure;Samples;Min_cycle;Max_cycle;Signal;HPM_P1;HPM_P2
2021/03/07 00:00:00;;;;;;;1999.90;999.90;;;18.10;85.80;;;;;;5052763;28;20176;-44
2021/03/07 00:02:27;;;;;;;1999.90;999.90;;;18.10;86.00;;;;;;5052738;28;20168;-46
2021/03/07 00:04:54;;;;;;;1999.90;999.90;;;18.00;86.40;;;;;;5052683;28;20562;-47
2021/03/07 00:07:21;;;;;;;1999.90;999.90;;;17.90;86.50;;;;;;5056133;28;20173;-46
2021/03/07 00:09:47;;;;;;;1999.90;999.90;;;17.90;87.20;;;;;;5056869;28;20176;-46
2021/03/07 00:12:14;;;;;;;1999.90;999.90;;;17.80;87.60;;;;;;5056891;28;20165;-46
2021/03/07 00:14:41;;;;;;;1999.90;999.90;;;17.70;88.70;;;;;;5056779;28;20246;-47
2021/03/07 00:17:08;;;;;;;1999.90;999.90;;;17.60;89.20;;;;;;5056682;28;20352;-45
2021/03/07 00:19:35;;;;;;;1999.90;999.90;;;17.70;89.60;;;;;;5056685;28;20173;-45
2021/03/07 00:22:02;;;;;;;1999.90;999.90;;;17.70;89.60;;;;;;5056524;28;20252;-45
2021/03/07 00:24:28;;;;;;;1999.90;999.90;;;17.70;89.60;;;;;;5056488;28;20184;-45
2021/03/07 00:26:55;;;;;;;1999.90;999.90;;;17.70;89.70;;;;;;5056463;28;20196;-45
2021/03/07 00:29:22;;;;;;;1999.90;999.90;;;17.70;89.70;;;;;;5056457;28;20215;-46
2021/03/07 00:31:49;;;;;;;1999.90;999.90;;;17.70;90.00;;;;;;5056219;28;20165;-45
2021/03/07 00:34:16;;;;;;;1999.90;999.90;;;17.70;90.10;;;;;;5056444;28;20201;-45
2021/03/07 00:36:43;;;;;;;1999.90;999.90;;;17.70;90.10;;;;;;5056384;28;20209;-45
2021/03/07 00:39:10;;;;;;;1999.90;999.90;;;17.70;90.10;;;;;;5056317;28;20166;-46
2021/03/07 00:41:36;;;;;;;1999.90;999.90;;;17.70;90.00;;;;;;5056222;28;20172;-46
2021/03/07 00:44:06;;;;;;;1999.90;999.90;;;17.70;89.30;;;;;;5056230;28;20568;-45
2021/03/07 00:46:33;;;;;;;1999.90;999.90;;;17.80;89.00;;;;;;5056133;28;20579;-45
2021/03/07 00:49:00;;;;;;;1999.90;999.90;;;17.80;88.50;;;;;;5056127;28;20168;-45
2021/03/07 00:51:27;;;;;;;1999.90;999.90;;;17.70;88.30;;;;;;5056078;28;20659;-45
2021/03/07 00:53:54;;;;;;;1999.90;999.90;;;17.70;87.80;;;;;;5055951;28;20204;-47
2021/03/07 00:56:21;;;;;;;1999.90;999.90;;;17.70;87.80;;;;;;5055914;28;20180;-46
2021/03/07 00:58:48;;;;;;;1999.90;999.90;;;17.50;88.10;;;;;;5055979;28;20184;-45
2021/03/07 01:01:14;;;;;;;1999.90;999.90;;;17.50;89.10;;;;;;5056071;28;20173;-45
2021/03/07 01:03:42;;;;;;;1999.90;999.90;;;17.50;89.10;;;;;;5055831;28;20640;-45
2021/03/07 01:06:09;;;;;;;1999.90;999.90;;;17.40;89.40;;;;;;5055668;28;20177;-45
2021/03/07 01:08:37;;;;;;;1999.90;999.90;;;17.30;90.00;;;;;;5055797;28;20176;-45
2021/03/07 01:11:04;;;;;;;1999.90;999.90;;;17.20;90.20;;;;;;5055660;28;20173;-45
2021/03/07 01:13:31;;;;;;;1999.90;999.90;;;17.30;90.30;;;;;;5055498;28;20619;-45
2021/03/07 01:15:58;;;;;;;1999.90;999.90;;;17.20;90.20;;;;;;5055516;28;20512;-45
2021/03/07 01:18:25;;;;;;;1999.90;999.90;;;17.10;90.50;;;;;;5055352;28;20632;-46
2021/03/07 01:20:52;;;;;;;1999.90;999.90;;;17.10;90.80;;;;;;5055442;28;20536;-47
2021/03/07 01:23:21;;;;;;;1999.90;999.90;;;17.10;90.70;;;;;;5055553;28;20173;-47
2021/03/07 01:25:48;;;;;;;1999.90;999.90;;;17.10;91.10;;;;;;5055537;28;20173;-46
2021/03/07 01:28:15;;;;;;;1999.90;999.90;;;17.00;91.20;;;;;;5055360;28;20644;-47
2021/03/07 01:30:43;;;;;;;1999.90;999.90;;;17.10;91.30;;;;;;5055215;28;20177;-45
2021/03/07 01:33:10;;;;;;;1999.90;999.90;;;17.10;91.40;;;;;;5055090;28;20747;-45
2021/03/07 01:35:38;;;;;;;1999.90;999.90;;;17.10;91.50;;;;;;5055214;28;20177;-45
2021/03/07 01:38:08;;;;;;;1999.90;999.90;;;17.20;91.50;;;;;;5055121;28;20189;-45
2021/03/07 01:40:48;;;;;;;1999.90;999.90;;;17.20;91.50;;;;;;5055111;28;20643;-45
2021/03/07 01:43:16;;;;;;;1999.90;999.90;;;17.20;91.40;;;;;;5055405;28;20169;-44
2021/03/07 01:45:42;;;;;;;1999.90;999.90;;;17.20;91.30;;;;;;5054953;28;20208;-44
2021/03/07 01:48:11;;;;;;;1999.90;999.90;;;17.20;91.00;;;;;;5055059;28;20169;-44
2021/03/07 01:50:48;;;;;;;1999.90;999.90;;;17.20;91.10;;;;;;5054893;28;20277;-45
2021/03/07 01:53:16;;;;;;;1999.90;999.90;;;17.20;91.10;;;;;;5054912;28;20513;-44
2021/03/07 01:55:44;;;;;;;1999.90;999.90;;;17.20;91.10;;;;;;5054734;28;20185;-45
2021/03/07 01:58:25;;;;;;;1999.90;999.90;;;17.20;90.90;;;;;;5054850;28;20244;-45
2021/03/07 02:00:53;;;;;;;1999.90;999.90;;;17.10;90.90;;;;;;5054876;28;20612;-45
2021/03/07 02:03:20;;;;;;;1999.90;999.90;;;17.10;90.70;;;;;;5054980;28;20688;-45
2021/03/07 02:05:48;;;;;;;1999.90;999.90;;;17.10;90.80;;;;;;5054702;28;20169;-46
2021/03/07 02:08:17;;;;;;;1999.90;999.90;;;17.10;90.80;;;;;;5054615;28;20254;-44
2021/03/07 02:10:56;;;;;;;1999.90;999.90;;;17.10;90.90;;;;;;5054596;28;20161;-44
2021/03/07 02:13:33;;;;;;;1999.90;999.90;;;17.00;91.00;;;;;;5054635;28;20156;-46
2021/03/07 02:16:12;;;;;;;1999.90;999.90;;;17.00;91.20;;;;;;5054589;28;20161;-45
2021/03/07 02:18:42;;;;;;;1999.90;999.90;;;16.90;91.30;;;;;;5054460;28;20158;-45
2021/03/07 02:21:17;;;;;;;1999.90;999.90;;;16.90;91.60;;;;;;5054341;28;20161;-44
2021/03/07 02:24:11;;;;;;;1999.90;999.90;;;16.80;91.60;;;;;;5054391;28;20153;-45
2021/03/07 02:26:41;;;;;;;1999.90;999.90;;;16.70;91.60;;;;;;5052984;28;20647;-45
2021/03/07 02:29:10;;;;;;;1999.90;999.90;;;16.70;91.80;;;;;;5053646;28;20216;-45
2021/03/07 02:31:43;;;;;;;1999.90;999.90;;;16.70;91.80;;;;;;5054198;28;20172;-44
2021/03/07 02:34:18;;;;;;;1999.90;999.90;;;16.70;91.50;;;;;;5054005;28;20232;-45
2021/03/07 02:36:52;;;;;;;1999.90;999.90;;;16.60;91.60;;;;;;5054164;28;20164;-48
2021/03/07 02:39:24;;;;;;;1999.90;999.90;;;16.70;91.90;;;;;;5054115;28;20165;-46
2021/03/07 02:41:58;;;;;;;1999.90;999.90;;;16.60;91.80;;;;;;5054055;28;20203;-44
2021/03/07 02:44:29;;;;;;;1999.90;999.90;;;16.50;91.90;;;;;;5054060;28;20168;-45
2021/03/07 02:46:57;;;;;;;1999.90;999.90;;;16.60;91.90;;;;;;5054063;28;20154;-44
2021/03/07 02:49:26;;;;;;;1999.90;999.90;;;16.60;92.00;;;;;;5053999;28;20659;-45
2021/03/07 02:51:55;;;;;;;1999.90;999.90;;;16.50;92.00;;;;;;5053811;28;20196;-44
2021/03/07 02:54:24;;;;;;;1999.90;999.90;;;16.60;92.20;;;;;;5053573;28;20204;-44
2021/03/07 02:56:53;;;;;;;1999.90;999.90;;;16.50;92.20;;;;;;5053585;28;20177;-45
2021/03/07 02:59:25;;;;;;;1999.90;999.90;;;16.50;92.80;;;;;;5053643;28;20172;-45
2021/03/07 03:02:00;;;;;;;1999.90;999.90;;;16.50;92.70;;;;;;5053585;28;20153;-44
2021/03/07 03:04:30;;;;;;;1999.90;999.90;;;16.40;92.70;;;;;;5053806;28;20685;-45
2021/03/07 03:06:58;;;;;;;1999.90;999.90;;;16.30;93.10;;;;;;5053627;28;20220;-44
2021/03/07 03:09:28;;;;;;;1999.90;999.90;;;16.30;93.20;;;;;;5053622;28;20242;-45
2021/03/07 03:11:58;;;;;;;1999.90;999.90;;;16.20;93.30;;;;;;5053605;28;20232;-45
2021/03/07 03:14:26;;;;;;;1999.90;999.90;;;16.20;93.30;;;;;;5053428;28;20227;-44
2021/03/07 03:16:57;;;;;;;1999.90;999.90;;;16.30;93.50;;;;;;5053391;28;20161;-44
2021/03/07 03:19:26;;;;;;;1999.90;999.90;;;16.30;93.60;;;;;;5053298;28;20164;-45
2021/03/07 03:21:53;;;;;;;1999.90;999.90;;;16.30;93.90;;;;;;5053293;28;20510;-45
2021/03/07 03:24:20;;;;;;;1999.90;999.90;;;16.40;93.40;;;;;;5053091;28;20547;-48
2021/03/07 03:26:47;;;;;;;1999.90;999.90;;;16.50;93.30;;;;;;5053210;28;20573;-45
2021/03/07 03:29:14;;;;;;;1999.90;999.90;;;16.60;93.10;;;;;;5053132;28;20193;-46
2021/03/07 03:31:41;;;;;;;1999.90;999.90;;;16.70;93.00;;;;;;5053002;28;20169;-45
2021/03/07 03:34:09;;;;;;;1999.90;999.90;;;16.70;92.60;;;;;;5053047;28;20249;-46
2021/03/07 03:36:38;;;;;;;1999.90;999.90;;;16.80;92.40;;;;;;5053055;28;20565;-45
2021/03/07 03:39:18;;;;;;;1999.90;999.90;;;16.80;92.50;;;;;;5053042;28;20165;-47
2021/03/07 03:41:50;;;;;;;1999.90;999.90;;;16.90;92.50;;;;;;5052243;28;20520;-45
2021/03/07 03:44:23;;;;;;;1999.90;999.90;;;17.00;92.20;;;;;;5052988;28;20161;-45
2021/03/07 03:46:55;;;;;;;1999.90;999.90;;;17.10;92.00;;;;;;5052951;28;20151;-45
2021/03/07 03:49:33;;;;;;;1999.90;999.90;;;17.20;91.80;;;;;;5053239;28;20169;-45
2021/03/07 03:52:04;;;;;;;1999.90;999.90;;;17.30;91.60;;;;;;5052967;28;20188;-45
2021/03/07 03:54:35;;;;;;;1999.90;999.90;;;17.30;91.30;;;;;;5053197;28;20558;-45
2021/03/07 03:57:03;;;;;;;1999.90;999.90;;;17.40;91.00;;;;;;5052898;28;20172;-45
2021/03/07 03:59:32;;;;;;;1999.90;999.90;;;17.50;90.80;;;;;;5052918;28;20173;-45
2021/03/07 04:01:59;;;;;;;1999.90;999.90;;;17.50;90.70;;;;;;5052879;28;20222;-44
2021/03/07 04:04:27;;;;;;;1999.90;999.90;;;17.60;90.60;;;;;;5052750;28;20219;-46
2021/03/07 04:06:55;;;;;;;1999.90;999.90;;;17.60;90.40;;;;;;5052669;28;20172;-45
2021/03/07 04:09:23;;;;;;;1999.90;999.90;;;17.70;90.30;;;;;;5052662;28;20590;-47
2021/03/07 04:11:51;;;;;;;1999.90;999.90;;;17.70;90.20;;;;;;5052604;28;20582;-45
2021/03/07 04:14:20;;;;;;;1999.90;999.90;;;17.60;90.30;;;;;;5052575;28;20201;-51
2021/03/07 04:16:51;;;;;;;1999.90;999.90;;;17.70;90.30;;;;;;5052654;28;20507;-45
2021/03/07 04:19:18;;;;;;;1999.90;999.90;;;17.70;90.30;;;;;;5052621;28;20180;-45
2021/03/07 04:21:47;;;;;;;1999.90;999.90;;;17.70;90.50;;;;;;5052690;28;20211;-47
2021/03/07 04:24:14;;;;;;;1999.90;999.90;;;17.70;90.50;;;;;;5052527;28;20218;-45
2021/03/07 04:26:41;;;;;;;1999.90;999.90;;;17.60;90.90;;;;;;5052565;28;20248;-46
2021/03/07 04:29:08;;;;;;;1999.90;999.90;;;17.60;91.10;;;;;;5052497;28;20169;-45
2021/03/07 04:31:36;;;;;;;1999.90;999.90;;;17.50;91.10;;;;;;5052607;28;20165;-45
2021/03/07 04:34:03;;;;;;;1999.90;999.90;;;17.50;91.10;;;;;;5052504;28;20778;-45
2021/03/07 04:36:30;;;;;;;1999.90;999.90;;;17.60;91.00;;;;;;5052422;28;20214;-45
2021/03/07 04:38:57;;;;;;;1999.90;999.90;;;17.60;90.90;;;;;;5052497;28;20181;-45
2021/03/07 04:41:24;;;;;;;1999.90;999.90;;;17.60;90.70;;;;;;5052440;28;20214;-45
2021/03/07 04:43:53;;;;;;;1999.90;999.90;;;17.60;90.50;;;;;;5052326;28;20184;-45
2021/03/07 04:46:25;;;;;;;1999.90;999.90;;;17.60;90.60;;;;;;5052404;28;20672;-46
2021/03/07 04:48:53;;;;;;;1999.90;999.90;;;17.60;90.60;;;;;;5052232;28;20295;-45
2021/03/07 04:51:20;;;;;;;1999.90;999.90;;;17.60;90.80;;;;;;5052380;28;20174;-45
2021/03/07 04:53:47;;;;;;;1999.90;999.90;;;17.60;90.80;;;;;;5056109;28;20205;-45
2021/03/07 04:56:15;;;;;;;1999.90;999.90;;;17.60;90.70;;;;;;5056020;28;20251;-46
2021/03/07 04:58:42;;;;;;;1999.90;999.90;;;17.60;90.60;;;;;;5055924;28;20184;-45
2021/03/07 05:01:09;;;;;;;1999.90;999.90;;;17.60;90.60;;;;;;5055900;28;20250;-46
2021/03/07 05:03:36;;;;;;;1999.90;999.90;;;17.60;90.70;;;;;;5055956;28;20247;-45
2021/03/07 05:06:03;;;;;;;1999.90;999.90;;;17.60;90.60;;;;;;5055787;28;20168;-44
2021/03/07 05:08:31;;;;;;;1999.90;999.90;;;17.60;90.70;;;;;;5055773;28;20172;-46
2021/03/07 05:10:58;;;;;;;1999.90;999.90;;;17.60;90.70;;;;;;5055631;28;20169;-45
2021/03/07 05:13:25;;;;;;;1999.90;999.90;;;17.60;90.60;;;;;;5055600;28;20255;-45
2021/03/07 05:15:52;;;;;;;1999.90;999.90;;;17.70;90.50;;;;;;5055650;28;20196;-44
2021/03/07 05:18:19;;;;;;;1999.90;999.90;;;17.60;90.50;;;;;;5055586;28;20161;-45
2021/03/07 05:20:46;;;;;;;1999.90;999.90;;;17.70;90.60;;;;;;5055578;28;20173;-45
2021/03/07 05:23:13;;;;;;;1999.90;999.90;;;17.70;90.60;;;;;;5055508;28;20169;-45
2021/03/07 05:25:40;;;;;;;1999.90;999.90;;;17.80;90.70;;;;;;5055607;28;20161;-52
2021/03/07 05:28:07;;;;;;;1999.90;999.90;;;17.90;90.60;;;;;;5055506;28;20192;-45
2021/03/07 05:30:36;;;;;;;1999.90;999.90;;;18.00;90.40;;;;;;5055388;28;20534;-46
2021/03/07 05:33:04;;;;;;;1999.90;999.90;;;18.00;90.20;;;;;;5055116;28;20221;-45
2021/03/07 05:35:31;;;;;;;1999.90;999.90;;;18.10;90.00;;;;;;5055176;28;20208;-45
2021/03/07 05:37:57;;;;;;;1999.90;999.90;;;18.20;89.70;;;;;;5055257;28;20643;-45
2021/03/07 05:40:25;;;;;;;1999.90;999.90;;;18.20;89.30;;;;;;5055214;28;20165;-49
2021/03/07 05:42:52;;;;;;;1999.90;999.90;;;18.40;89.10;;;;;;5055134;28;20223;-45
2021/03/07 05:45:19;;;;;;;1999.90;999.90;;;18.40;89.10;;;;;;5055188;28;20639;-45
2021/03/07 05:47:46;;;;;;;1999.90;999.90;;;18.40;89.00;;;;;;5054962;28;20173;-45
2021/03/07 05:50:13;;;;;;;1999.90;999.90;;;18.50;89.10;;;;;;5054955;28;20169;-46
2021/03/07 05:52:40;;;;;;;1999.90;999.90;;;18.50;88.90;;;;;;5055003;28;20196;-45
2021/03/07 05:55:07;;;;;;;1999.90;999.90;;;18.60;88.50;;;;;;5054788;28;20216;-45
2021/03/07 05:57:38;;;;;;;1999.90;999.90;;;18.90;88.10;;;;;;5054794;28;20169;-45
2021/03/07 06:00:05;;;;;;;1999.90;999.90;;;19.30;85.70;;;;;;5055092;28;20168;-46
2021/03/07 06:02:32;;;;;;;1999.90;999.90;;;19.50;84.70;;;;;;5054789;28;20175;-46
2021/03/07 06:04:59;;;;;;;1999.90;999.90;;;19.70;84.30;;;;;;5053527;28;20169;-46
2021/03/07 06:07:26;;;;;;;1999.90;999.90;;;19.90;82.70;;;;;;5054684;28;20222;-45
2021/03/07 06:10:17;;;;;;;1999.90;999.90;;;20.10;81.70;;;;;;5054607;28;20165;-45
2021/03/07 06:12:57;;;;;;;1999.90;999.90;;;20.20;80.90;;;;;;5054588;28;20660;-47
2021/03/07 06:15:24;;;;;;;1999.90;999.90;;;20.20;80.70;;;;;;5054525;28;20242;-44
2021/03/07 06:17:51;;;;;;;1999.90;999.90;;;20.20;80.30;;;;;;5054457;28;20161;-47
2021/03/07 06:20:20;;;;;;;1999.90;999.90;;;20.30;79.90;;;;;;5054435;28;20196;-54
2021/03/07 06:22:57;;;;;;;1999.90;999.90;;;20.50;79.10;;;;;;5054369;28;20177;-46
2021/03/07 06:25:24;;;;;;;1999.90;999.90;;;20.70;78.50;;;;;;5054323;28;20272;-46
2021/03/07 06:27:52;;;;;;;1999.90;999.90;;;20.70;77.90;;;;;;5054238;28;20227;-45
2021/03/07 06:30:23;;;;;;;1999.90;999.90;;;20.70;78.00;;;;;;5054176;28;20183;-45
2021/03/07 06:32:58;;;;;;;1999.90;999.90;;;20.80;78.00;;;;;;5053915;28;20702;-45
2021/03/07 06:35:27;;;;;;;1999.90;999.90;;;20.90;77.30;;;;;;5054018;28;20607;-45
2021/03/07 06:38:03;;;;;;;1999.90;999.90;;;20.90;77.40;;;;;;5054195;28;20622;-45
2021/03/07 06:40:35;;;;;;;1999.90;999.90;;;20.80;77.30;;;;;;5054070;28;20161;-45
2021/03/07 06:43:04;;;;;;;1999.90;999.90;;;20.90;77.70;;;;;;5053979;28;20162;-46
2021/03/07 06:45:56;;;;;;;1999.90;999.90;;;20.90;77.80;;;;;;5053900;28;20176;-47
2021/03/07 06:48:36;;;;;;;1999.90;999.90;;;21.00;77.10;;;;;;5052137;28;20188;-45
2021/03/07 06:51:03;;;;;;;1999.90;999.90;;;21.10;77.00;;;;;;5053863;28;20236;-46
2021/03/07 06:53:44;;;;;;;1999.90;999.90;;;21.20;76.80;;;;;;5053743;28;20165;-46
2021/03/07 06:56:11;;;;;;;1999.90;999.90;;;21.50;76.00;;;;;;5053758;28;20629;-45
2021/03/07 06:58:38;;;;;;;1999.90;999.90;;;21.70;74.80;;;;;;5053657;28;20276;-46
2021/03/07 07:01:17;;;;;;;1999.90;999.90;;;21.70;74.50;;;;;;5053641;28;20231;-45
2021/03/07 07:03:57;;;;;;;1999.90;999.90;;;21.90;74.50;;;;;;5053746;28;20157;-45
2021/03/07 07:06:24;;;;;;;1999.90;999.90;;;22.00;73.30;;;;;;5053584;28;20157;-45
2021/03/07 07:08:51;;;;;;;1999.90;999.90;;;22.10;72.30;;;;;;5053466;28;20165;-45
2021/03/07 07:11:17;;;;;;;1999.90;999.90;;;22.10;72.10;;;;;;5053590;28;20171;-46
2021/03/07 07:13:47;;;;;;;1999.90;999.90;;;22.10;71.80;;;;;;5053474;28;20193;-48
2021/03/07 07:16:14;;;;;;;1999.90;999.90;;;22.30;71.90;;;;;;5053130;28;20173;-48
2021/03/07 07:18:44;;;;;;;1999.90;999.90;;;22.50;70.80;;;;;;5053322;28;20166;-46
2021/03/07 07:21:15;;;;;;;1999.90;999.90;;;22.80;69.70;;;;;;5053186;28;20176;-54
2021/03/07 07:23:43;;;;;;;1999.90;999.90;;;23.00;68.60;;;;;;5051884;28;20619;-46
2021/03/07 07:26:10;;;;;;;1999.90;999.90;;;23.20;66.80;;;;;;5053082;28;20176;-46
2021/03/07 07:28:37;;;;;;;1999.90;999.90;;;23.10;66.10;;;;;;5053108;28;20161;-47
2021/03/07 07:31:25;;;;;;;1999.90;999.90;;;23.10;66.60;;;;;;5052936;28;20181;-48
2021/03/07 07:33:52;;;;;;;1999.90;999.90;;;23.30;66.40;;;;;;5052871;28;20224;-46
2021/03/07 07:36:28;;;;;;;1999.90;999.90;;;23.40;65.30;;;;;;5053204;28;20161;-48
2021/03/07 07:38:58;;;;;;;1999.90;999.90;;;23.20;66.10;;;;;;5053085;28;20203;-45
2021/03/07 07:41:43;;;;;;;1999.90;999.90;;;23.30;65.70;;;;;;5052819;28;20179;-45
2021/03/07 07:44:13;;;;;;;1999.90;999.90;;;23.00;65.80;;;;;;5052943;28;20184;-46
2021/03/07 07:47:03;;;;;;;1999.90;999.90;;;22.90;66.70;;;;;;5052745;28;20255;-46
2021/03/07 07:49:46;;;;;;;1999.90;999.90;;;23.20;65.70;;;;;;5052868;28;20226;-47
2021/03/07 07:52:39;;;;;;;1999.90;999.90;;;23.20;64.80;;;;;;5052800;28;20177;-45
2021/03/07 07:55:11;;;;;;;1999.90;999.90;;;23.20;65.60;;;;;;5050867;28;20231;-45
2021/03/07 07:57:45;;;;;;;1999.90;999.90;;;23.10;65.90;;;;;;5052681;28;20516;-46
2021/03/07 08:00:18;;;;;;;1999.90;999.90;;;23.30;65.50;;;;;;5052678;28;20161;-48
2021/03/07 08:02:49;;;;;;;1999.90;999.90;;;23.40;65.10;;;;;;5052746;28;20181;-48
2021/03/07 08:05:22;;;;;;;1999.90;999.90;;;23.60;64.80;;;;;;5052683;28;20173;-46
2021/03/07 08:08:00;;;;;;;1999.90;999.90;;;24.10;63.80;;;;;;5052737;28;20173;-46
2021/03/07 08:10:46;;;;;;;1999.90;999.90;;;24.70;61.00;;;;;;5052699;28;20646;-51
2021/03/07 08:13:28;;;;;;;1999.90;999.90;;;25.40;59.40;;;;;;5052656;28;20150;-50
2021/03/07 08:15:56;;;;;;;1999.90;999.90;;;25.00;59.10;;;;;;5052601;28;20258;-47
2021/03/07 08:18:44;;;;;;;1999.90;999.90;;;25.40;58.40;;;;;;5052688;28;20166;-46
2021/03/07 08:21:11;;;;;;;1999.90;999.90;;;26.20;57.20;;;;;;5052468;28;20165;-46
2021/03/07 08:23:55;;;;;;;1999.90;999.90;;;27.30;55.30;;;;;;5052277;28;20193;-49
2021/03/07 08:26:23;;;;;;;1999.90;999.90;;;28.10;52.90;;;;;;5052303;28;20188;-45
2021/03/07 08:28:50;;;;;;;1999.90;999.90;;;28.70;51.60;;;;;;5056403;28;20180;-46
2021/03/07 08:31:19;;;;;;;1999.90;999.90;;;29.10;49.80;;;;;;5056306;28;20509;-46
2021/03/07 08:33:47;;;;;;;1999.90;999.90;;;28.40;50.60;;;;;;5056173;28;20291;-46
2021/03/07 08:36:18;;;;;;;1999.90;999.90;;;28.00;51.90;;;;;;5056345;28;20173;-46
2021/03/07 08:38:54;;;;;;;1999.90;999.90;;;27.90;52.30;;;;;;5056388;28;20248;-46
2021/03/07 08:41:26;;;;;;;1999.90;999.90;;;28.60;50.90;;;;;;5056417;28;20224;-45
2021/03/07 08:43:58;;;;;;;1999.90;999.90;;;28.30;50.90;;;;;;5056369;28;20643;-46
2021/03/07 08:46:26;;;;;;;1999.90;999.90;;;28.10;51.00;;;;;;5056369;28;20163;-49
2021/03/07 08:49:13;;;;;;;1999.90;999.90;;;28.10;51.20;;;;;;5056242;28;20180;-45
2021/03/07 08:51:49;;;;;;;1999.90;999.90;;;27.30;53.00;;;;;;5056080;28;20154;-46
2021/03/07 08:54:22;;;;;;;1999.90;999.90;;;27.80;52.10;;;;;;5056044;28;20200;-46
2021/03/07 08:56:53;;;;;;;1999.90;999.90;;;27.10;52.80;;;;;;5055886;28;20168;-46
2021/03/07 08:59:28;;;;;;;1999.90;999.90;;;28.10;52.00;;;;;;5055830;28;20247;-47
2021/03/07 09:01:56;;;;;;;1999.90;999.90;;;29.30;49.10;;;;;;5056000;28;20161;-46
2021/03/07 09:04:31;;;;;;;1999.90;999.90;;;29.90;48.20;;;;;;5056169;28;20161;-48
2021/03/07 09:06:58;;;;;;;1999.90;999.90;;;30.10;47.30;;;;;;5055981;28;20161;-47
2021/03/07 09:09:25;;;;;;;1999.90;999.90;;;29.40;47.80;;;;;;5055822;28;20173;-45
2021/03/07 09:11:53;;;;;;;1999.90;999.90;;;29.60;47.90;;;;;;5055883;28;20189;-48
2021/03/07 09:14:37;;;;;;;1999.90;999.90;;;29.80;47.70;;;;;;5055623;28;20243;-45
2021/03/07 09:17:23;;;;;;;1999.90;999.90;;;28.50;49.70;;;;;;5054293;28;20601;-52
2021/03/07 09:19:50;;;;;;;1999.90;999.90;;;29.20;49.30;;;;;;5055670;28;20165;-46
2021/03/07 09:22:28;;;;;;;1999.90;999.90;;;30.30;47.90;;;;;;5055568;28;20165;-45
2021/03/07 09:25:04;;;;;;;1999.90;999.90;;;30.90;46.40;;;;;;5055627;28;20573;-45
2021/03/07 09:27:42;;;;;;;1999.90;999.90;;;30.40;46.30;;;;;;5055321;28;20177;-45
2021/03/07 09:30:19;;;;;;;1999.90;999.90;;;29.40;48.10;;;;;;5055387;28;20590;-48
2021/03/07 09:32:48;;;;;;;1999.90;999.90;;;28.30;50.50;;;;;;5055101;28;20221;-50
2021/03/07 09:35:27;;;;;;;1999.90;999.90;;;28.00;51.20;;;;;;5055229;28;20201;-48
2021/03/07 09:38:03;;;;;;;1999.90;999.90;;;27.70;51.80;;;;;;5054604;28;20565;-49
2021/03/07 09:40:36;;;;;;;1999.90;999.90;;;27.50;52.40;;;;;;5054857;28;20164;-47
2021/03/07 09:43:09;;;;;;;1999.90;999.90;;;27.70;53.10;;;;;;5055143;28;20630;-45
2021/03/07 09:45:39;;;;;;;1999.90;999.90;;;28.10;51.80;;;;;;5055119;28;20695;-46
2021/03/07 09:48:07;;;;;;;1999.90;999.90;;;29.00;50.00;;;;;;5055283;28;20613;-46
2021/03/07 09:50:34;;;;;;;1999.90;999.90;;;29.70;48.50;;;;;;5054817;28;20181;-45
2021/03/07 09:53:02;;;;;;;1999.90;999.90;;;29.40;48.40;;;;;;5054956;28;20247;-52
2021/03/07 09:55:34;;;;;;;1999.90;999.90;;;28.70;49.50;;;;;;5054966;28;20735;-48
2021/03/07 09:58:09;;;;;;;1999.90;999.90;;;27.90;50.80;;;;;;5054980;28;20261;-49
2021/03/07 10:00:40;;;;;;;1999.90;999.90;;;27.60;51.90;;;;;;5054937;28;20214;-48
2021/03/07 10:03:23;;;;;;;1999.90;999.90;;;27.30;52.40;;;;;;5055086;28;20621;-48
2021/03/07 10:06:18;;;;;;;1999.90;999.90;;;28.00;52.10;;;;;;5054701;28;20162;-46
2021/03/07 10:08:47;;;;;;;1999.90;999.90;;;28.90;49.50;;;;;;5054602;28;20569;-48
2021/03/07 10:11:19;;;;;;;1999.90;999.90;;;29.00;48.60;;;;;;5054612;28;20248;-47
2021/03/07 10:14:01;;;;;;;1999.90;999.90;;;28.70;49.10;;;;;;5054578;28;20211;-48
2021/03/07 10:16:30;;;;;;;1999.90;999.90;;;28.90;48.30;;;;;;5054591;28;20207;-45
2021/03/07 10:19:23;;;;;;;1999.90;999.90;;;28.60;49.10;;;;;;5054305;28;20660;-46
2021/03/07 10:21:56;;;;;;;1999.90;999.90;;;28.70;49.20;;;;;;5052612;28;20181;-48
2021/03/07 10:24:22;;;;;;;1999.90;999.90;;;28.60;49.20;;;;;;5054350;28;20516;-52
2021/03/07 10:26:51;;;;;;;1999.90;999.90;;;28.30;49.60;;;;;;5054335;28;20169;-50
2021/03/07 10:29:23;;;;;;;1999.90;999.90;;;28.00;50.30;;;;;;5054191;28;20651;-47
2021/03/07 10:32:15;;;;;;;1999.90;999.90;;;27.80;50.70;;;;;;5053910;28;20231;-48
2021/03/07 10:34:44;;;;;;;1999.90;999.90;;;27.90;51.00;;;;;;5054215;28;20604;-49
2021/03/07 10:37:41;;;;;;;1999.90;999.90;;;28.00;51.50;;;;;;5054020;28;20200;-45
2021/03/07 10:40:13;;;;;;;1999.90;999.90;;;27.90;51.90;;;;;;5053987;28;20177;-49
2021/03/07 10:42:42;;;;;;;1999.90;999.90;;;28.00;52.10;;;;;;5053792;28;20166;-47
2021/03/07 10:45:22;;;;;;;1999.90;999.90;;;28.10;52.30;;;;;;5053811;28;20169;-46
2021/03/07 10:48:04;;;;;;;1999.90;999.90;;;28.20;52.50;;;;;;5053770;28;20157;-47
2021/03/07 10:50:32;;;;;;;1999.90;999.90;;;28.50;52.50;;;;;;5053574;28;20158;-48
2021/03/07 10:52:59;;;;;;;1999.90;999.90;;;28.60;51.90;;;;;;5053752;28;20173;-54
2021/03/07 10:55:27;;;;;;;1999.90;999.90;;;28.70;51.40;;;;;;5053593;28;20680;-47
2021/03/07 10:57:54;;;;;;;1999.90;999.90;;;28.60;51.50;;;;;;5053988;28;20173;-45
2021/03/07 11:00:23;;;;;;;1999.90;999.90;;;28.40;51.40;;;;;;5053699;28;20180;-47
2021/03/07 11:02:52;;;;;;;1999.90;999.90;;;28.70;51.40;;;;;;5053494;28;20165;-47
2021/03/07 11:05:19;;;;;;;1999.90;999.90;;;28.90;51.20;;;;;;5053586;28;20670;-47
2021/03/07 11:07:46;;;;;;;1999.90;999.90;;;29.10;50.50;;;;;;5053390;28;20180;-49
2021/03/07 11:10:17;;;;;;;1999.90;999.90;;;29.00;50.10;;;;;;5053555;28;20171;-48
2021/03/07 11:12:44;;;;;;;1999.90;999.90;;;28.90;51.10;;;;;;5053444;28;20176;-46
2021/03/07 11:15:12;;;;;;;1999.90;999.90;;;28.70;51.30;;;;;;5053376;28;20201;-47
2021/03/07 11:17:40;;;;;;;1999.90;999.90;;;28.80;51.60;;;;;;5053362;28;20335;-46
2021/03/07 11:20:10;;;;;;;1999.90;999.90;;;29.00;49.80;;;;;;5053397;28;20173;-57
2021/03/07 11:22:37;;;;;;;1999.90;999.90;;;29.00;49.40;;;;;;5053490;28;20168;-47
2021/03/07 11:25:06;;;;;;;1999.90;999.90;;;28.90;50.20;;;;;;5053305;28;20177;-47
2021/03/07 11:27:34;;;;;;;1999.90;999.90;;;28.90;50.70;;;;;;5053273;28;20521;-47
2021/03/07 11:30:01;;;;;;;1999.90;999.90;;;29.10;50.80;;;;;;5053178;28;20176;-49
2021/03/07 11:32:28;;;;;;;1999.90;999.90;;;29.40;49.70;;;;;;5053166;28;20221;-46
2021/03/07 11:34:55;;;;;;;1999.90;999.90;;;29.50;48.90;;;;;;5052989;28;20284;-46
2021/03/07 11:37:21;;;;;;;1999.90;999.90;;;29.10;48.90;;;;;;5052939;28;20191;-46
2021/03/07 11:39:48;;;;;;;1999.90;999.90;;;28.70;50.40;;;;;;5053059;28;20180;-52
2021/03/07 11:42:15;;;;;;;1999.90;999.90;;;28.30;51.00;;;;;;5052959;28;20172;-49
2021/03/07 11:44:42;;;;;;;1999.90;999.90;;;28.10;52.00;;;;;;5052907;28;20179;-46
2021/03/07 11:47:09;;;;;;;1999.90;999.90;;;27.80;52.60;;;;;;5053288;28;20589;-46
2021/03/07 11:49:36;;;;;;;1999.90;999.90;;;28.00;51.90;;;;;;5052881;28;20631;-47
2021/03/07 11:52:03;;;;;;;1999.90;999.90;;;28.10;51.90;;;;;;5052911;28;20165;-46
2021/03/07 11:54:29;;;;;;;1999.90;999.90;;;28.40;51.70;;;;;;5052728;28;20192;-46
2021/03/07 11:56:56;;;;;;;1999.90;999.90;;;28.50;51.00;;;;;;5052796;28;20550;-47
2021/03/07 11:59:23;;;;;;;1999.90;999.90;;;28.90;49.70;;;;;;5052739;28;20165;-50
2021/03/07 12:01:50;;;;;;;1999.90;999.90;;;29.10;49.40;;;;;;5051897;28;20223;-48
2021/03/07 12:04:17;;;;;;;1999.90;999.90;;;29.40;48.90;;;;;;5052753;28;20222;-50
2021/03/07 12:06:43;;;;;;;1999.90;999.90;;;29.60;48.90;;;;;;5052694;28;20172;-46
2021/03/07 12:09:10;;;;;;;1999.90;999.90;;;29.50;48.80;;;;;;5052855;28;20172;-46
2021/03/07 12:11:37;;;;;;;1999.90;999.90;;;29.70;48.40;;;;;;5052667;28;20177;-50
2021/03/07 12:14:04;;;;;;;1999.90;999.90;;;29.90;47.40;;;;;;5052519;28;20592;-50